Relevés horaires Bierset (Belgique)


Relevés horaires à Bierset - Dimanche 04 Nov. 2018
Heure UTC1 Température [°C] Vent [km/h] Hum. [%] Pres.4 [hPa] Visi. [Km] Nébu. [octa] Préc.5 [mm] Cond.
2m. Res. Ros. Dir.2 Vit. Moy. Raf.3
23:00 8.5 8.5 6.0 NNO 0.0 7.4 16.7 84 1010.6(-1.2/3h) 12 6/8 -- --
22:00 7.7 6.9 6.1 SE 5.6 5.6 13.0 90 1011.4(-1.0/3h) 10 2/8 -- --
21:00 9.1 9.1 6.3 ESE 3.7 5.6 13.0 83 1011.5(-0.8/3h) 12 3/8 -- --
20:00 9.4 9.4 6.6 ESE 3.7 5.6 13.0 83 1011.8(-0.8/3h) 13 3/8 -- --
19:00 9.5 9.5 6.6 SE 3.7 5.6 5.6 82 1012.3(-0.9/3h) 13 1/8 -- --
18:00 10.5 10.2 6.7 ESE 5.6 7.4 16.7 77 1012.2(-1.0/3h) 13 1/8 0/12h
--
17:00 11.1 11.1 7.0 NNO 3.7 3.7 9.3 76 1012.5(-0.9/3h) 13 1/8 -- --
16:00 12.0 12.0 6.7 SE 3.7 3.7 9.3 70 1013(-1.3/3h) 13 1/8 -- --
15:00 12.8 12.8 7.1 E 3.7 7.4 16.7 68 1013.1(-1.9/3h) 13 1/8 -- --
14:00 13.5 13.5 7.4 SE 3.7 5.6 11.1 67 1013.3(-2.6/3h) 13 2/8 -- --
13:00 13.0 13 7.3 SE 5.6 7.4 16.7 68 1014.2(-2.3/3h) 13 2/8 -- --
12:00 12.3 11.8 6.7 SE 7.4 7.4 18.5 69 1015(-2.2/3h) 13 3/8 0/6h
--
11:00 10.9 10.6 6.0 SSE 5.6 5.6 18.5 72 1016.2(-1.4/3h) 13 3/8 -- --
10:00 9.1 9.1 5.6 SE 3.7 5.6 9.3 79 1016.9(-0.9/3h) 13 3/8 -- --
09:00 7.3 7.3 4.6 SSE 3.7 5.6 14.8 83 1017.7(-0.3/3h) 10 3/8 -- --
08:00 5.1 4 3.1 SSE 5.6 5.6 14.8 87 1018.2(-0.7/3h) 9 3/8 -- --
07:00 4.2 2.9 2.7 SSE 5.6 5.6 13.0 90 1018.2(-0.9/3h) 8 3/8 -- --
06:00 4.3 4.3 2.4 S 3.7 7.4 18.5 87 1018.2(-1.2/3h) 10 4/8 0/12h
--
05:00 4.9 3.7 2.7 SSE 5.6 5.6 14.8 86 1018.9(-1.2/3h) 13 4/8 -- --
04:00 4.3 3.1 2.2 SSE 5.6 7.4 9.3 86 1019.1(-1.7/3h) 17 4/8 -- --
03:00 4.3 2.5 2.1 SE 7.4 7.4 11.1 86 1019.4(-2.0/3h) 30 2/8 -- --
02:00 4.4 3.2 1.8 SSE 5.6 5.6 11.1 83 1020.2(-2.3/3h) 30 2/8 -- --
01:00 4.4 3.2 1.3 SSE 5.6 5.6 9.3 80 1020.9(-2.4/3h) 30 2/8 -- --
00:00 4.3 3.1 0.9 SE 5.6 7.4 18.5 78 1021.5(-2.3/3h) 30 2/8 0/6h
0/24h
--

1 Coordinated Universal Time. Actuellement il est 20:00 locale et 18:00 UTC.

2 Le vent souffle depuis la direction indiquée vers la direction oposée.

3 Les rafales max. sont disponible 40 min après l'heure du relevé.

4 Pour les stations d'altitude (plus de 600m) le géopotentiel du niveau le plus proche de la pression obligatoire est indiqué.

5 Les stations disposant d'un diffuseur peuvent indiquer "trace". Cela signifie que des précipitations ont touchés le sol mais que la quantité est inférieure à 0.1 mm.

Récapitulatif de la journée
Température [°C] Vent [km/h] Ensoleillement4 [h] Precipitations totale5 [mm] Pression [Hpa]
Min1 Max.2 Moy.3 Max. Min Max.
3.4 13.7 6.1 18.5 0 h 0 min 0 1010.6 1021.5

1 Température minimale relevée entre 18:00 UTC la veille et 18:00 UTC le jour donné.

2 Température maximale relevée entre 06:00 UTC le jour donné et 06:00 UTC le lendemain.

3 Vent moyen de la journée basé sur les relevés horaires.

4 Ensoleillement en heures relevé entre 06:00 UTC la veille et 06:00 UTC le jour donné.

5 Précipitations totales tombées entre 06:00 UTC la jour donné et 06:00 UTC le lendemain.

Graphiques horaires